Time;durP1;ratioP1;P1;durP2;ratioP2;P2;SDS_P1;SDS_P2;PMS_P1;PMS_P2;Temp;Humidity;BMP_temperature;BMP_pressure;BME280_temperature;BME280_humidity;BME280_pressure;Samples;Min_cycle;Max_cycle;Signal;HPM_P1;HPM_P2
2022/07/22 00:00:30;;;;;;;9.40;6.60;;;;;;;23.46;54.83;99112.41;7002940;28;20215;-80
2022/07/22 00:03:51;;;;;;;6.83;6.23;;;;;;;23.26;56.02;99102.28;7002201;28;20689;-79
2022/07/22 00:07:13;;;;;;;6.67;6.03;;;;;;;23.41;55.66;99098.66;7003937;28;20659;-80
2022/07/22 00:10:35;;;;;;;6.70;6.00;;;;;;;23.74;54.79;99093.31;7003795;28;20213;-79
2022/07/22 00:17:28;;;;;;;9.13;6.17;;;;;;;23.53;55.15;99097.25;7143747;22;20228;-79
2022/07/22 00:20:49;;;;;;;6.87;6.27;;;;;;;23.63;55.04;99099.13;6944664;28;20214;-79
2022/07/22 00:24:11;;;;;;;6.77;6.17;;;;;;;23.44;54.07;99065.09;6949546;28;20233;-78
2022/07/22 00:27:32;;;;;;;6.93;6.30;;;;;;;23.13;56.01;99110.28;6948822;28;20216;-79
2022/07/22 00:30:54;;;;;;;8.03;7.07;;;;;;;23.15;56.01;99108.06;6949944;28;20231;-79
2022/07/22 00:34:17;;;;;;;8.47;6.30;;;;;;;23.16;55.93;99109.72;6949616;28;20227;-79
2022/07/22 00:37:39;;;;;;;7.97;6.37;;;;;;;23.48;54.86;99100.00;6949535;28;20263;-79
2022/07/22 00:41:00;;;;;;;7.63;6.93;;;;;;;23.28;55.54;99102.84;6950554;28;20655;-79
2022/07/22 00:44:22;;;;;;;9.07;6.57;;;;;;;23.09;55.47;99110.03;6950171;28;20265;-79
2022/07/22 00:47:43;;;;;;;6.77;6.17;;;;;;;23.23;55.81;99094.59;6950417;28;20210;-79
2022/07/22 00:51:06;;;;;;;7.17;5.77;;;;;;;23.63;54.41;99102.72;6951646;28;20225;-79
2022/07/22 00:54:28;;;;;;;7.17;6.07;;;;;;;23.17;55.90;99098.47;6960430;28;20219;-79
2022/07/22 00:57:49;;;;;;;7.87;6.70;;;;;;;23.00;56.20;99105.34;6965353;28;20202;-79
2022/07/22 01:01:11;;;;;;;10.03;6.87;;;;;;;22.69;56.20;99092.75;6954527;28;20222;-79
2022/07/22 01:04:33;;;;;;;8.50;7.60;;;;;;;22.01;59.00;99094.03;6947450;28;20704;-79
2022/07/22 01:07:56;;;;;;;7.40;6.70;;;;;;;22.54;58.28;99106.50;6948207;28;20215;-79
2022/07/22 01:11:19;;;;;;;7.83;7.20;;;;;;;22.69;57.51;99100.97;6948475;28;20227;-79
2022/07/22 01:14:41;;;;;;;7.30;6.60;;;;;;;22.53;57.50;99100.16;6948138;28;20622;-79
2022/07/22 01:18:02;;;;;;;7.77;6.50;;;;;;;22.71;57.04;99096.88;6947766;28;20205;-79
2022/07/22 01:21:26;;;;;;;7.83;7.03;;;;;;;22.16;58.48;99096.81;6948045;28;20237;-80
2022/07/22 01:24:48;;;;;;;8.23;7.10;;;;;;;22.35;58.70;99105.34;6947868;28;20237;-80
2022/07/22 01:28:09;;;;;;;7.50;6.80;;;;;;;22.65;57.58;99097.16;6946542;28;20206;-80
2022/07/22 01:31:31;;;;;;;7.97;7.17;;;;;;;22.45;57.74;99091.66;6947219;28;20204;-80
2022/07/22 01:34:53;;;;;;;7.60;7.00;;;;;;;22.64;57.72;99096.31;6948011;28;20356;-80
2022/07/22 01:38:16;;;;;;;7.90;7.20;;;;;;;22.65;56.96;99089.72;6947015;28;20671;-80
2022/07/22 01:41:37;;;;;;;9.70;7.10;;;;;;;22.50;57.23;99081.50;6948188;28;20301;-79
2022/07/22 01:44:59;;;;;;;7.20;6.17;;;;;;;22.58;57.50;99107.56;6947799;28;20239;-80
2022/07/22 01:48:21;;;;;;;8.17;6.07;;;;;;;22.71;56.94;99098.81;6946888;28;20212;-80
2022/07/22 01:51:43;;;;;;;8.03;7.03;;;;;;;22.45;56.84;99047.69;6949511;28;20273;-80
2022/07/22 01:55:07;;;;;;;9.43;7.10;;;;;;;22.34;57.10;99101.78;6952486;28;20258;-80
2022/07/22 01:58:29;;;;;;;7.87;6.87;;;;;;;22.56;56.69;99094.13;6951905;28;20206;-80
2022/07/22 02:01:50;;;;;;;7.13;6.13;;;;;;;22.70;56.73;99094.38;6952563;28;20204;-79
2022/07/22 02:05:13;;;;;;;7.97;6.57;;;;;;;22.60;56.06;99075.97;6950879;28;20234;-80
2022/07/22 02:08:34;;;;;;;7.10;6.50;;;;;;;22.51;56.59;99102.38;6952123;28;20282;-80
2022/07/22 02:11:57;;;;;;;7.43;6.57;;;;;;;22.41;56.00;99090.50;6952717;28;20228;-79
2022/07/22 02:15:19;;;;;;;7.77;7.07;;;;;;;22.04;57.48;99076.19;6952258;28;20322;-79
2022/07/22 02:18:40;;;;;;;10.43;6.80;;;;;;;22.07;58.54;99086.66;6951085;28;20279;-80
2022/07/22 02:22:02;;;;;;;7.40;6.73;;;;;;;22.46;57.30;99083.13;6928217;28;20225;-80
2022/07/22 02:25:24;;;;;;;7.87;6.97;;;;;;;22.20;57.36;99080.63;6924830;28;20272;-79
2022/07/22 02:28:47;;;;;;;9.30;7.20;;;;;;;21.56;58.87;99063.69;6935595;28;20200;-80
2022/07/22 02:32:08;;;;;;;10.80;7.10;;;;;;;22.35;57.20;99088.84;6937243;28;20231;-80
2022/07/22 02:35:30;;;;;;;7.80;7.00;;;;;;;22.17;57.26;99070.16;6923393;28;20227;-79
2022/07/22 02:38:52;;;;;;;9.27;7.17;;;;;;;22.05;57.98;99078.66;6922870;28;20203;-80
2022/07/22 02:42:13;;;;;;;8.50;6.70;;;;;;;22.07;56.90;99067.41;6924044;28;20304;-79
2022/07/22 02:45:36;;;;;;;8.30;7.03;;;;;;;22.07;57.53;99081.16;6925312;28;20232;-80
2022/07/22 02:48:58;;;;;;;9.23;7.83;;;;;;;21.64;59.14;99082.38;6922423;28;20214;-79
2022/07/22 02:52:19;;;;;;;8.37;7.50;;;;;;;21.16;58.80;98999.63;6922942;28;20369;-79
2022/07/22 02:55:41;;;;;;;8.00;6.97;;;;;;;22.02;57.59;99068.22;6931854;28;20223;-79
2022/07/22 02:59:03;;;;;;;7.77;7.07;;;;;;;22.19;56.55;99082.53;6947448;28;20671;-79
2022/07/22 03:02:26;;;;;;;8.47;7.57;;;;;;;21.76;57.68;99090.41;6947908;28;20241;-79
2022/07/22 03:05:47;;;;;;;7.20;6.50;;;;;;;21.89;57.48;99059.72;6947681;28;20333;-79
2022/07/22 03:13:57;;;;;;;7.90;7.20;;;;;;;21.75;58.63;99091.50;6950387;28;20164;-79
2022/07/22 03:17:18;;;;;;;7.73;6.93;;;;;;;21.66;58.56;99091.16;6925656;28;20305;-79
2022/07/22 03:20:41;;;;;;;8.10;7.40;;;;;;;21.81;58.54;99095.91;6922819;28;20586;-80
2022/07/22 03:24:03;;;;;;;6.93;6.27;;;;;;;22.19;56.71;99092.72;6922931;28;20244;-80
2022/07/22 03:27:25;;;;;;;9.03;7.30;;;;;;;21.85;56.67;99062.16;6922667;28;20228;-80
2022/07/22 03:35:04;;;;;;;7.20;6.60;;;;;;;21.40;58.04;99039.19;6922832;28;20288;-79
2022/07/22 03:38:27;;;;;;;7.70;6.80;;;;;;;21.72;57.47;99039.91;6922849;28;20279;-79
2022/07/22 03:42:39;;;;;;;8.40;7.00;;;;;;;22.00;56.87;99092.38;6922721;28;20222;-79
2022/07/22 03:46:00;;;;;;;7.20;6.60;;;;;;;21.78;57.42;99082.72;6924038;28;20229;-81
2022/07/22 03:49:22;;;;;;;7.27;6.57;;;;;;;21.87;57.14;99097.56;6925047;28;20198;-81
2022/07/22 03:52:44;;;;;;;8.37;7.33;;;;;;;21.37;57.46;99087.19;6924531;28;20288;-81
2022/07/22 03:56:08;;;;;;;9.50;8.40;;;;;;;21.01;60.79;99097.44;6925105;28;20251;-81
2022/07/22 03:59:29;;;;;;;9.43;7.70;;;;;;;21.16;58.77;99031.72;6923179;28;20227;-81
2022/07/22 04:02:51;;;;;;;8.43;7.50;;;;;;;21.57;58.08;99083.72;6923730;28;20295;-81
2022/07/22 04:06:12;;;;;;;8.20;7.13;;;;;;;21.47;57.74;99048.84;6921089;28;20228;-81
2022/07/22 04:09:34;;;;;;;7.50;6.80;;;;;;;21.21;58.81;99038.03;6922674;28;20188;-81
2022/07/22 04:13:01;;;;;;;8.67;7.77;;;;;;;21.78;57.91;99101.94;6923742;28;20261;-81
2022/07/22 04:16:22;;;;;;;8.90;7.17;;;;;;;21.96;57.62;99102.25;6922845;28;20240;-82
2022/07/22 04:19:44;;;;;;;8.73;7.90;;;;;;;21.45;57.39;99036.47;6923865;28;20219;-81
2022/07/22 04:26:56;;;;;;;10.23;7.23;;;;;;;21.66;57.91;99091.16;7272745;22;20246;-79
2022/07/22 04:30:19;;;;;;;8.17;7.37;;;;;;;21.72;57.36;99084.63;6949913;28;20211;-79
2022/07/22 04:33:40;;;;;;;8.67;7.60;;;;;;;21.46;57.85;99095.75;6951299;28;20210;-79
2022/07/22 04:37:02;;;;;;;11.70;7.93;;;;;;;21.38;59.04;99096.25;6925369;28;20200;-79
2022/07/22 04:40:24;;;;;;;8.90;7.97;;;;;;;20.77;59.79;99023.78;6925568;28;20204;-79
2022/07/22 04:43:46;;;;;;;10.70;8.40;;;;;;;20.60;60.31;99005.03;6925881;28;20283;-79
2022/07/22 04:47:09;;;;;;;9.43;8.43;;;;;;;21.23;60.11;99114.56;6926684;28;20238;-79
2022/07/22 04:50:30;;;;;;;11.27;7.77;;;;;;;21.49;58.76;99092.47;6925316;28;20661;-79
2022/07/22 04:53:53;;;;;;;8.87;8.17;;;;;;;20.62;59.75;98959.03;6929831;28;20239;-79
2022/07/22 04:57:15;;;;;;;9.10;8.30;;;;;;;21.81;58.96;99077.53;6925560;28;20211;-78
2022/07/22 05:00:36;;;;;;;10.67;7.57;;;;;;;22.05;57.52;99077.84;6925345;28;20223;-79
2022/07/22 05:04:01;;;;;;;9.87;7.40;;;;;;;21.74;57.61;98999.28;6925799;28;20228;-79
2022/07/22 05:07:22;;;;;;;8.17;7.43;;;;;;;22.14;57.84;99082.50;6926119;28;20229;-78
2022/07/22 05:10:44;;;;;;;10.53;7.83;;;;;;;22.18;56.89;99022.38;6925433;28;20666;-78
2022/07/22 05:14:06;;;;;;;8.10;7.30;;;;;;;23.40;54.85;99072.25;6925858;28;20667;-79
2022/07/22 05:17:27;;;;;;;8.10;7.30;;;;;;;23.59;53.54;99068.59;6925346;28;20553;-79
2022/07/22 05:20:50;;;;;;;8.00;7.20;;;;;;;24.26;51.92;99082.53;6925264;28;20566;-79
2022/07/22 05:24:12;;;;;;;8.63;7.83;;;;;;;24.17;52.64;99062.22;6925576;28;20216;-79
2022/07/22 05:27:34;;;;;;;8.53;7.63;;;;;;;24.31;52.56;99054.94;6928567;28;20264;-79
2022/07/22 05:30:57;;;;;;;8.20;7.40;;;;;;;24.16;51.61;98974.31;6928675;28;20214;-79
2022/07/22 05:34:19;;;;;;;10.20;7.53;;;;;;;24.74;52.20;99081.63;6930655;28;20222;-79
2022/07/22 05:37:42;;;;;;;7.80;7.07;;;;;;;24.10;51.76;98931.41;6930118;28;20295;-79
2022/07/22 05:41:03;;;;;;;8.47;7.10;;;;;;;25.34;50.32;99080.19;6930389;28;20208;-79
2022/07/22 05:44:25;;;;;;;9.07;7.67;;;;;;;25.27;49.91;99079.72;6930783;28;20209;-79
2022/07/22 05:47:47;;;;;;;8.30;7.50;;;;;;;24.63;51.56;99063.53;6929718;28;20242;-79
2022/07/22 05:51:12;;;;;;;8.70;7.77;;;;;;;25.18;51.08;99065.72;6929382;28;20214;-78
2022/07/22 05:54:35;;;;;;;8.47;7.73;;;;;;;25.20;51.05;99055.19;6929216;28;20209;-79
2022/07/22 05:57:58;;;;;;;7.97;7.17;;;;;;;25.19;50.40;98995.59;6928209;28;20204;-80
2022/07/22 06:01:20;;;;;;;9.80;8.53;;;;;;;25.43;49.67;99010.22;6928139;28;20236;-80
2022/07/22 06:04:42;;;;;;;8.70;7.80;;;;;;;25.68;49.37;98986.97;6956396;28;20217;-79
2022/07/22 06:08:04;;;;;;;11.13;8.67;;;;;;;25.73;50.39;99069.78;6956272;28;20227;-79
2022/07/22 06:11:27;;;;;;;9.43;8.10;;;;;;;26.43;49.14;99077.06;6957406;28;20218;-80
2022/07/22 06:14:49;;;;;;;9.10;8.27;;;;;;;26.06;49.95;99080.66;6957331;28;20210;-80
2022/07/22 06:18:10;;;;;;;9.73;8.83;;;;;;;26.21;48.89;99077.69;6956290;28;20271;-79
2022/07/22 06:21:32;;;;;;;9.60;8.63;;;;;;;25.43;48.77;98981.81;6957162;28;20208;-79
2022/07/22 06:24:54;;;;;;;9.40;8.50;;;;;;;26.42;47.37;98998.78;6956474;28;20223;-78
2022/07/22 06:28:17;;;;;;;8.97;8.17;;;;;;;26.58;47.09;99011.28;6955582;28;20583;-79
2022/07/22 06:31:38;;;;;;;9.60;8.70;;;;;;;26.76;47.08;99062.97;6955726;28;20221;-80
2022/07/22 06:35:00;;;;;;;9.20;8.30;;;;;;;27.52;45.43;99067.88;6956421;28;20203;-80
2022/07/22 06:38:22;;;;;;;8.97;8.17;;;;;;;27.91;45.08;99063.47;6956053;28;20214;-80
2022/07/22 06:41:44;;;;;;;8.83;7.93;;;;;;;28.21;43.73;99042.53;6956363;28;20222;-79
2022/07/22 06:45:08;;;;;;;9.37;8.03;;;;;;;27.21;44.28;98992.09;6956125;28;20658;-80
2022/07/22 06:48:31;;;;;;;12.10;8.07;;;;;;;27.98;44.54;99061.09;6930488;28;20251;-80
2022/07/22 06:51:53;;;;;;;11.03;9.03;;;;;;;27.81;44.05;99013.81;6927585;28;20212;-80
2022/07/22 06:55:15;;;;;;;8.47;7.67;;;;;;;29.02;43.07;99051.31;6926892;28;20212;-79
2022/07/22 06:58:36;;;;;;;8.93;8.03;;;;;;;29.10;40.56;98975.56;6926705;28;20215;-80
2022/07/22 07:01:59;;;;;;;8.93;8.13;;;;;;;29.06;42.00;99066.19;6927524;28;20237;-79
2022/07/22 07:05:21;;;;;;;8.17;7.40;;;;;;;28.95;41.43;98981.53;6927072;28;20213;-79
2022/07/22 07:08:43;;;;;;;8.60;7.90;;;;;;;28.67;42.31;99054.97;6926565;28;20227;-80
2022/07/22 07:12:05;;;;;;;8.87;8.00;;;;;;;27.79;43.86;98982.78;6927088;28;20206;-80
2022/07/22 07:15:27;;;;;;;8.30;6.80;;;;;;;28.34;42.79;99050.81;6927337;28;20581;-80
2022/07/22 07:18:50;;;;;;;8.40;7.17;;;;;;;28.18;42.98;98976.63;6925380;28;20747;-80
2022/07/22 07:22:12;;;;;;;8.33;7.53;;;;;;;29.65;40.63;99042.59;6927110;28;20216;-80
2022/07/22 07:25:33;;;;;;;9.60;7.77;;;;;;;30.15;38.41;98989.06;6926322;28;20219;-80
2022/07/22 07:28:55;;;;;;;9.03;8.13;;;;;;;28.86;39.56;99036.19;6926343;28;20660;-79
2022/07/22 07:32:17;;;;;;;9.07;7.47;;;;;;;28.60;41.95;99026.06;6924857;28;20205;-80
2022/07/22 07:35:40;;;;;;;8.50;7.70;;;;;;;29.77;38.95;99017.78;6926152;28;20209;-79
2022/07/22 07:39:02;;;;;;;8.17;7.37;;;;;;;28.83;40.14;99022.13;6925845;28;20223;-79
2022/07/22 07:42:23;;;;;;;8.50;7.70;;;;;;;28.88;40.44;99019.19;6926747;28;20210;-80
2022/07/22 07:45:45;;;;;;;8.80;7.70;;;;;;;30.09;38.35;98998.72;6926205;28;20233;-80
2022/07/22 07:49:07;;;;;;;7.77;7.03;;;;;;;30.77;36.83;98993.06;6925086;28;20285;-80
2022/07/22 07:52:30;;;;;;;7.83;6.87;;;;;;;29.52;40.13;98996.25;6926197;28;20221;-80
2022/07/22 07:55:52;;;;;;;8.37;7.20;;;;;;;30.84;37.05;98932.09;6925713;28;20209;-80
2022/07/22 07:59:13;;;;;;;7.10;6.40;;;;;;;31.51;35.90;98929.31;6924757;28;20223;-80
2022/07/22 08:02:35;;;;;;;8.10;7.30;;;;;;;29.26;39.61;98987.06;6926001;28;20253;-80
2022/07/22 08:05:57;;;;;;;7.53;6.60;;;;;;;28.84;41.20;98987.66;6926228;28;20239;-80
2022/07/22 08:09:20;;;;;;;8.13;7.43;;;;;;;29.46;39.20;98989.22;6924943;28;20813;-79
2022/07/22 08:12:42;;;;;;;7.43;6.53;;;;;;;28.59;40.66;98947.53;6924639;28;20603;-79
2022/07/22 08:16:04;;;;;;;7.13;6.43;;;;;;;31.13;37.73;98996.19;6925461;28;20203;-80
2022/07/22 08:19:26;;;;;;;8.83;7.90;;;;;;;29.91;37.48;98932.25;6924879;28;20206;-80
2022/07/22 08:22:47;;;;;;;7.80;6.80;;;;;;;30.38;38.51;98990.47;6925356;28;20216;-79
2022/07/22 08:26:10;;;;;;;7.53;6.93;;;;;;;30.27;38.18;98972.50;6925335;28;20750;-79
2022/07/22 08:29:32;;;;;;;7.40;6.70;;;;;;;31.34;37.38;98990.72;6924648;28;20219;-80
2022/07/22 08:32:55;;;;;;;6.40;5.70;;;;;;;31.68;35.46;98924.44;6925021;28;20215;-80
2022/07/22 08:36:16;;;;;;;7.40;6.27;;;;;;;31.83;34.43;98976.81;6925480;28;20678;-79
2022/07/22 08:39:38;;;;;;;7.20;6.60;;;;;;;30.12;37.19;98924.88;6923848;28;20215;-79
2022/07/22 08:43:02;;;;;;;12.07;6.43;;;;;;;31.83;34.78;98957.31;6925071;28;20238;-79
2022/07/22 08:46:24;;;;;;;7.37;6.63;;;;;;;30.72;35.39;98979.31;6924973;28;20238;-79
2022/07/22 08:49:46;;;;;;;6.70;6.10;;;;;;;29.74;37.55;98982.28;6924700;28;20322;-80
2022/07/22 08:53:11;;;;;;;7.03;6.43;;;;;;;31.51;36.16;98965.53;6924675;28;20665;-79
2022/07/22 08:56:33;;;;;;;7.80;6.37;;;;;;;31.60;35.28;98938.44;6924940;28;20218;-80
2022/07/22 08:59:58;;;;;;;6.90;6.30;;;;;;;31.25;35.44;98959.31;6924964;28;20663;-80
2022/07/22 09:03:25;;;;;;;7.30;6.23;;;;;;;32.25;33.25;98944.19;6930698;28;20328;-79
2022/07/22 09:06:49;;;;;;;9.67;5.63;;;;;;;32.91;32.52;98937.38;6930037;28;20314;-79
2022/07/22 09:10:13;;;;;;;8.37;5.77;;;;;;;32.64;33.60;98908.09;6929529;28;20598;-79
2022/07/22 09:13:35;;;;;;;6.50;5.93;;;;;;;31.70;33.04;98834.84;6930368;28;20211;-80
2022/07/22 09:16:58;;;;;;;6.83;6.13;;;;;;;30.33;35.44;98862.69;6930207;28;20208;-80
2022/07/22 09:20:20;;;;;;;8.70;6.50;;;;;;;32.32;33.59;98938.84;6929305;28;20692;-79
2022/07/22 09:23:42;;;;;;;6.90;6.30;;;;;;;31.58;34.64;98941.56;6929877;28;20212;-80
2022/07/22 09:27:06;;;;;;;7.20;5.83;;;;;;;32.59;33.84;98936.25;6929608;28;20230;-80
2022/07/22 09:30:28;;;;;;;6.30;5.67;;;;;;;33.44;31.98;98898.84;6928367;28;20215;-80
2022/07/22 09:33:53;;;;;;;7.60;6.17;;;;;;;33.84;31.16;98938.88;6930050;28;20207;-80
2022/07/22 09:37:15;;;;;;;7.37;6.20;;;;;;;33.40;31.51;98937.06;6929751;28;20200;-80
2022/07/22 09:40:39;;;;;;;6.30;5.50;;;;;;;33.42;32.35;98936.72;6929216;28;20219;-80
2022/07/22 09:44:21;;;;;;;6.27;5.67;;;;;;;33.59;31.79;98931.69;6930347;28;20211;-80
2022/07/22 09:47:44;;;;;;;6.47;5.87;;;;;;;34.35;31.75;98926.81;6928073;28;20242;-80
2022/07/22 09:51:07;;;;;;;6.23;5.73;;;;;;;33.78;30.68;98920.72;6928699;28;20208;-79
2022/07/22 09:54:29;;;;;;;6.60;6.10;;;;;;;32.25;33.78;98917.06;6929040;28;20547;-80
2022/07/22 09:57:52;;;;;;;7.17;5.90;;;;;;;34.39;31.24;98908.13;6928077;28;20285;-80
2022/07/22 10:01:14;;;;;;;7.07;6.30;;;;;;;35.45;28.95;98903.28;6929140;28;20690;-79
2022/07/22 10:04:36;;;;;;;5.73;5.23;;;;;;;35.53;29.36;98907.88;6928952;28;20662;-80
2022/07/22 10:08:01;;;;;;;5.87;5.37;;;;;;;35.98;28.72;98896.88;6928205;28;20314;-79
2022/07/22 10:11:23;;;;;;;5.87;5.37;;;;;;;36.52;28.11;98904.03;6928478;28;20233;-80
2022/07/22 10:14:45;;;;;;;6.10;5.50;;;;;;;34.77;29.51;98866.34;6928797;28;20208;-79
2022/07/22 10:18:09;;;;;;;5.60;5.10;;;;;;;35.97;28.33;98875.59;6927563;28;20220;-80
2022/07/22 10:21:32;;;;;;;6.07;5.47;;;;;;;36.69;27.76;98883.06;6928345;28;20217;-80
2022/07/22 10:25:02;;;;;;;6.77;5.53;;;;;;;35.87;27.52;98859.34;6928583;28;20730;-80
2022/07/22 10:28:26;;;;;;;8.17;5.90;;;;;;;33.87;30.40;98871.03;6927479;28;20231;-80
2022/07/22 10:31:48;;;;;;;6.77;5.80;;;;;;;34.58;29.19;98809.38;6927239;28;20208;-80
2022/07/22 10:35:26;;;;;;;7.73;5.40;;;;;;;34.02;30.38;98839.47;6928388;28;20234;-79
2022/07/22 10:39:04;;;;;;;6.20;5.50;;;;;;;35.07;28.22;98850.69;6927430;28;20226;-80
2022/07/22 10:43:04;;;;;;;6.30;5.53;;;;;;;35.33;28.43;98864.97;6928558;28;20230;-80
2022/07/22 10:46:48;;;;;;;5.87;5.20;;;;;;;36.53;26.83;98859.88;6928288;28;20215;-80
2022/07/22 10:50:43;;;;;;;6.40;5.80;;;;;;;35.65;28.09;98855.25;6928206;28;20211;-80
2022/07/22 10:54:05;;;;;;;6.03;5.50;;;;;;;36.66;26.52;98822.81;6927397;28;20211;-80
2022/07/22 10:57:34;;;;;;;6.10;5.50;;;;;;;36.76;26.61;98791.28;6927207;28;20207;-80
2022/07/22 11:00:57;;;;;;;6.33;5.70;;;;;;;37.44;25.63;98813.59;6927385;28;20460;-80
2022/07/22 11:04:19;;;;;;;5.97;5.20;;;;;;;36.25;27.36;98806.78;6927133;28;20207;-80
2022/07/22 11:07:45;;;;;;;5.90;5.40;;;;;;;35.51;27.46;98812.88;6927095;28;20291;-79
2022/07/22 11:11:07;;;;;;;6.40;5.63;;;;;;;35.47;28.41;98800.75;6927402;28;20240;-80
2022/07/22 11:14:32;;;;;;;5.80;5.30;;;;;;;36.21;27.55;98805.13;6927432;28;20203;-80
2022/07/22 11:17:57;;;;;;;5.80;5.30;;;;;;;36.08;27.74;98820.47;6927090;28;20208;-80
2022/07/22 11:21:20;;;;;;;7.17;5.80;;;;;;;36.64;27.95;98791.47;6927100;28;20211;-80
2022/07/22 11:24:42;;;;;;;6.07;5.47;;;;;;;36.85;27.02;98814.28;6928782;28;20215;-81
2022/07/22 11:28:04;;;;;;;5.80;5.30;;;;;;;37.22;26.24;98803.25;6927722;28;20224;-80
2022/07/22 11:31:27;;;;;;;5.90;5.00;;;;;;;37.41;25.94;98787.03;6952955;28;20211;-80
2022/07/22 11:34:49;;;;;;;5.30;4.90;;;;;;;37.39;25.44;98802.69;6953847;28;20214;-80
2022/07/22 11:38:11;;;;;;;7.67;5.70;;;;;;;36.66;26.77;98797.53;6952946;28;20214;-79
2022/07/22 11:41:32;;;;;;;7.40;6.10;;;;;;;36.72;26.26;98793.19;6941097;28;20212;-80
2022/07/22 11:44:54;;;;;;;6.03;5.40;;;;;;;36.78;26.41;98774.03;6926516;28;20610;-80
2022/07/22 11:48:19;;;;;;;6.00;5.40;;;;;;;37.06;26.29;98775.25;6925585;28;20233;-80
2022/07/22 11:51:41;;;;;;;5.57;5.00;;;;;;;37.63;25.66;98743.94;6926513;28;20204;-80
2022/07/22 11:55:15;;;;;;;6.50;5.70;;;;;;;38.10;24.97;98769.44;6926218;28;20215;-80
2022/07/22 11:58:42;;;;;;;5.90;5.30;;;;;;;37.77;25.44;98765.78;6925816;28;20215;-80
2022/07/22 12:02:29;;;;;;;8.03;5.30;;;;;;;38.05;24.99;98757.69;6925982;28;20344;-80
2022/07/22 12:06:09;;;;;;;5.83;5.33;;;;;;;37.54;24.93;98698.38;6925286;28;20211;-79
2022/07/22 12:09:32;;;;;;;6.57;4.67;;;;;;;38.80;22.70;98744.72;6924813;28;20747;-80
2022/07/22 12:12:55;;;;;;;5.67;4.90;;;;;;;38.25;23.27;98695.09;6926040;28;20208;-80
2022/07/22 12:16:22;;;;;;;5.57;5.00;;;;;;;38.32;23.29;98705.66;6925337;28;20207;-80
2022/07/22 12:19:45;;;;;;;5.13;4.67;;;;;;;38.62;22.78;98723.22;6950743;28;20208;-80
2022/07/22 12:23:08;;;;;;;6.10;5.60;;;;;;;38.10;23.69;98721.56;6952403;28;20220;-80
2022/07/22 12:26:44;;;;;;;5.40;4.47;;;;;;;38.30;23.29;98708.84;6952333;28;20230;-79
2022/07/22 12:30:13;;;;;;;5.33;4.90;;;;;;;38.45;23.38;98648.63;6951846;28;20217;-80
2022/07/22 12:33:34;;;;;;;5.05;4.65;;;;;;;38.14;23.02;98668.06;6950804;28;20214;-80
2022/07/22 12:36:56;;;;;;;5.17;4.77;;;;;;;38.26;23.21;98704.38;6952024;28;20208;-80
2022/07/22 12:40:21;;;;;;;5.33;4.83;;;;;;;38.23;24.03;98703.16;6951479;28;20669;-80
2022/07/22 12:43:43;;;;;;;5.73;5.03;;;;;;;38.44;24.05;98692.06;6951833;28;20219;-80
2022/07/22 12:47:04;;;;;;;5.57;5.07;;;;;;;39.27;23.14;98684.53;6952197;28;20233;-80
2022/07/22 12:50:28;;;;;;;5.67;5.17;;;;;;;38.13;24.16;98701.03;6951888;28;20208;-79
2022/07/22 12:53:49;;;;;;;5.77;5.00;;;;;;;38.62;23.84;98689.41;6952743;28;20348;-79
2022/07/22 12:57:12;;;;;;;5.93;5.37;;;;;;;37.89;23.83;98689.53;6992621;22;20225;-79
2022/07/22 13:00:36;;;;;;;5.80;5.17;;;;;;;36.97;25.39;98681.13;7006479;28;20209;-78
2022/07/22 13:08:14;;;;;;;5.80;5.20;;;;;;;36.87;24.59;98578.59;7006908;28;20198;-78
2022/07/22 13:11:39;;;;;;;6.53;4.90;;;;;;;37.06;24.32;98679.66;7007160;28;20209;-78
2022/07/22 13:15:03;;;;;;;6.73;4.93;;;;;;;37.51;24.36;98679.44;7007164;28;20212;-79
2022/07/22 13:18:25;;;;;;;5.90;5.27;;;;;;;38.65;23.48;98675.31;7006973;28;20209;-79
2022/07/22 13:21:46;;;;;;;5.87;4.87;;;;;;;38.15;23.05;98647.16;7006913;28;20212;-78
2022/07/22 13:25:08;;;;;;;5.63;4.80;;;;;;;38.02;23.91;98671.19;7007023;28;20217;-78
2022/07/22 13:28:30;;;;;;;5.30;4.90;;;;;;;38.11;23.25;98651.94;7006435;28;20244;-79
2022/07/22 13:31:54;;;;;;;5.03;4.67;;;;;;;37.76;23.78;98615.81;7006336;28;20209;-79
2022/07/22 13:35:16;;;;;;;5.40;4.90;;;;;;;37.43;23.75;98601.75;7006661;28;20214;-79
2022/07/22 13:38:37;;;;;;;6.50;5.07;;;;;;;38.28;23.78;98638.00;7007026;28;20198;-78
2022/07/22 13:41:59;;;;;;;5.30;4.80;;;;;;;38.31;23.74;98616.69;7006525;28;20602;-78
2022/07/22 13:45:21;;;;;;;5.77;4.87;;;;;;;38.40;22.42;98595.41;7006524;28;20222;-79
2022/07/22 13:48:44;;;;;;;6.37;5.10;;;;;;;38.29;23.38;98648.06;7009828;28;20221;-79
2022/07/22 13:52:06;;;;;;;5.63;5.13;;;;;;;38.25;22.60;98646.44;7011333;28;20292;-79
2022/07/22 13:55:29;;;;;;;4.90;4.50;;;;;;;38.53;22.11;98636.19;7011782;28;20217;-79
2022/07/22 13:58:51;;;;;;;6.60;4.90;;;;;;;37.81;23.43;98623.06;7011276;28;20205;-79
2022/07/22 14:02:14;;;;;;;6.00;4.57;;;;;;;37.39;23.49;98597.31;7011385;28;20240;-79
2022/07/22 14:05:37;;;;;;;5.60;5.10;;;;;;;38.70;22.19;98648.75;7011167;28;20231;-79
2022/07/22 14:08:58;;;;;;;5.87;5.27;;;;;;;36.48;24.92;98636.25;7010511;28;20603;-79
2022/07/22 14:12:20;;;;;;;5.00;4.60;;;;;;;37.38;23.96;98637.88;7010702;28;20217;-79
2022/07/22 14:15:41;;;;;;;4.80;4.40;;;;;;;37.35;23.71;98616.13;7011102;28;20212;-79
2022/07/22 14:19:05;;;;;;;5.27;4.83;;;;;;;36.43;24.40;98577.56;7010826;28;20205;-79
2022/07/22 14:22:28;;;;;;;5.27;4.87;;;;;;;37.17;23.55;98617.94;7009111;28;20201;-79
2022/07/22 14:25:50;;;;;;;6.70;4.63;;;;;;;37.01;23.56;98586.41;7010472;28;20573;-79
2022/07/22 14:29:12;;;;;;;7.43;4.60;;;;;;;36.78;24.49;98614.63;7010333;28;20226;-79
2022/07/22 14:32:33;;;;;;;5.20;4.70;;;;;;;37.18;22.91;98571.75;7010520;28;20209;-78
2022/07/22 14:35:55;;;;;;;7.40;4.70;;;;;;;36.29;23.58;98563.34;7010967;28;20571;-79
2022/07/22 14:39:18;;;;;;;5.90;5.00;;;;;;;36.44;23.98;98626.16;7009912;28;20198;-79
2022/07/22 14:42:40;;;;;;;6.23;4.97;;;;;;;36.82;23.60;98539.59;7010332;28;20682;-79
2022/07/22 14:46:04;;;;;;;6.87;4.90;;;;;;;36.78;23.85;98605.41;7010740;28;20220;-78
2022/07/22 14:49:25;;;;;;;4.70;4.27;;;;;;;36.88;23.30;98557.72;7010474;28;20237;-78
2022/07/22 14:52:47;;;;;;;5.73;4.67;;;;;;;37.23;23.15;98616.41;7009949;28;20214;-78
2022/07/22 14:56:10;;;;;;;5.33;4.90;;;;;;;36.70;23.58;98615.72;7009900;28;20238;-79
2022/07/22 14:59:32;;;;;;;5.10;4.60;;;;;;;36.85;23.67;98569.72;7009298;28;20202;-79
2022/07/22 15:02:53;;;;;;;5.00;4.57;;;;;;;36.40;24.09;98564.31;7009827;28;20212;-79
2022/07/22 15:06:15;;;;;;;5.13;4.73;;;;;;;38.12;22.84;98612.13;7009491;28;20205;-78
2022/07/22 15:09:37;;;;;;;5.10;4.63;;;;;;;38.08;22.93;98566.22;7009228;28;20233;-78
2022/07/22 15:13:00;;;;;;;4.67;4.27;;;;;;;37.46;22.75;98558.81;7009219;28;20209;-78
2022/07/22 15:16:21;;;;;;;4.70;4.30;;;;;;;37.81;21.17;98499.22;7009367;28;20201;-79
2022/07/22 15:19:43;;;;;;;5.20;4.70;;;;;;;37.11;22.03;98535.94;7009478;28;20215;-79
2022/07/22 15:23:05;;;;;;;4.80;4.40;;;;;;;37.73;22.30;98537.75;7009000;28;20346;-79
2022/07/22 15:26:27;;;;;;;4.97;4.50;;;;;;;37.51;22.01;98519.06;7008769;28;20210;-79
2022/07/22 15:29:50;;;;;;;6.33;4.70;;;;;;;38.33;22.12;98581.28;7009006;28;20603;-79
2022/07/22 15:33:11;;;;;;;5.27;4.13;;;;;;;38.49;21.01;98570.53;7008590;28;20228;-79
2022/07/22 15:36:33;;;;;;;4.73;4.13;;;;;;;37.60;22.13;98513.94;7008717;28;20234;-78
2022/07/22 15:39:55;;;;;;;6.40;4.83;;;;;;;38.30;21.61;98570.78;7009089;28;20574;-79
2022/07/22 15:43:17;;;;;;;4.70;4.30;;;;;;;37.20;22.53;98564.53;7008956;28;20577;-79
2022/07/22 15:46:40;;;;;;;5.07;4.67;;;;;;;36.60;23.38;98545.31;7008900;28;20663;-78
2022/07/22 15:50:01;;;;;;;4.80;4.40;;;;;;;36.28;24.33;98572.97;7007741;28;20700;-79
2022/07/22 15:53:24;;;;;;;5.20;4.70;;;;;;;37.36;23.27;98553.06;7008361;28;20217;-79
2022/07/22 15:56:45;;;;;;;4.93;4.53;;;;;;;37.83;22.28;98537.03;7008362;28;20252;-79
2022/07/22 16:00:07;;;;;;;5.57;4.70;;;;;;;37.51;22.28;98572.53;7007811;28;20690;-79
2022/07/22 16:03:30;;;;;;;4.70;4.30;;;;;;;36.84;22.33;98519.53;7008659;28;20339;-79
2022/07/22 16:06:52;;;;;;;4.80;4.47;;;;;;;37.00;22.79;98562.28;7008207;28;20207;-79
2022/07/22 16:10:14;;;;;;;5.77;4.20;;;;;;;36.88;22.50;98512.75;7007357;28;20221;-79
2022/07/22 16:13:35;;;;;;;6.13;4.70;;;;;;;36.47;23.24;98484.91;7008718;28;20213;-79
2022/07/22 16:16:57;;;;;;;5.20;4.70;;;;;;;37.22;22.13;98534.06;7008455;28;20562;-78